Terminal Aerodrome Forecast
Issued by NWS

Home | Current Version | Previous Version | Text Only | Print | Product List | Glossary On
Versions: 1 2 3 4 5 6 7 8 9 10 11 12 13 14 15 16 17 18 19 20 21 22 23 24
806
FTUS45 KCYS 131752
TAFRWL
TAF
KRWL 131752Z 1318/1418 25025G36KT P6SM BKN100
     FM140300 26020G28KT P6SM BKN120=

USA.gov is the U.S. government's official web portal to all federal, state and local government web resources and services.